Data for 12/27/2010

Time Sea-Level Adjusted Pressure Absolute Pressure Temperature Relative Humidity Dew Point   
(mb) (inHg) (mb) (inHg) (C) (F) (%) (C) (F)
00:05 1013 29.91 842 24.86 1.1 34 45 -9.6 14.6
00:10 1013 29.91 843 24.89 0.9 33.7 46 -9.5 15
00:15 1013 29.91 843 24.89 0.4 32.7 48 -9.5 14.9
00:20 1013 29.91 843 24.89 0.4 32.7 47 -9.8 14.4
00:25 1014 29.94 843 24.89 0.5 32.9 47 -9.5 14.9
00:30 1014 29.94 843 24.89 0.5 32.8 49 -9.1 15.6
00:35 1014 29.94 843 24.89 0.7 33.3 53 -7.7 18.1
00:40 1014 29.94 843 24.89 0.8 33.4 55 -7.3 18.8
00:45 1014 29.94 843 24.89 0.6 33.1 57 -6.9 19.5
00:50 1014 29.94 843 24.89 0.5 32.8 58 -6.7 19.9
00:55 1014 29.94 843 24.89 0.5 32.8 60 -6.4 20.5
01:00 1014 29.94 844 24.92 0.3 32.5 63 -6 21.1
01:05 1014 29.94 844 24.92 0 32 68 -5.2 22.6
01:10 1014 29.94 844 24.92 -0.4 31.3 77 -3.9 25
01:15 1015 29.97 844 24.92 -1.1 30 83 -3.6 25.5
01:20 1015 29.97 844 24.92 -1.4 29.4 82 -4.1 24.7
01:25 1015 29.97 844 24.92 -1.4 29.4 81 -4.2 24.4
01:30 1015 29.97 844 24.92 -1.4 29.4 81 -4.3 24.3
01:35 1015 29.97 844 24.92 -1.5 29.3 81 -4.3 24.3
01:40 1015 29.97 844 24.92 -1.6 29.2 82 -4.3 24.3
01:45 1015 29.97 844 24.92 -1.6 29.2 82 -4.2 24.4
01:50 1015 29.97 844 24.92 -1.5 29.2 81 -4.3 24.2
01:55 1015 29.97 844 24.92 -1.5 29.4 80 -4.5 23.8
02:00 1015 29.97 844 24.92 -1.4 29.4 77 -5 23
02:05 1015 29.97 844 24.92 -1.3 29.7 75 -5.1 22.8
02:10 1015 29.97 844 24.92 -1.3 29.7 75 -5.2 22.7
02:15 1015 29.97 844 24.92 -1.2 29.8 72 -5.7 21.8
02:20 1015 29.97 844 24.92 -1.2 29.9 70 -5.9 21.3
02:25 1015 29.97 844 24.92 -1.1 30.1 68 -6.2 20.8
02:30 1015 29.97 845 24.95 -1.1 30 69 -6.2 20.9
02:35 1015 29.97 845 24.95 -1.3 29.7 67 -6.5 20.2
02:40 1015 29.97 845 24.95 -1.3 29.7 65 -7.1 19.2
02:45 1016 30 845 24.95 -1.1 29.9 61 -7.7 18.2
02:50 1016 30 845 24.95 -1 30.1 60 -7.8 18
02:55 1016 30 845 24.95 -1.1 30.1 59 -8 17.5
03:00 1016 30 845 24.95 -1.1 30 58 -8.4 16.9
03:05 1016 30 845 24.95 -1.2 29.9 57 -8.5 16.6
03:10 1016 30 845 24.95 -1.2 29.9 55 -9.1 15.6
03:15 1016 30 845 24.95 -1.2 29.8 54 -9.3 15.2
03:20 1016 30 845 24.95 -1.1 29.9 54 -9.2 15.4
03:25 1016 30 845 24.95 -1.2 29.9 54 -9.4 15
03:30 1015 29.97 845 24.95 -1.1 29.9 54 -9.2 15.4
03:35 1016 30 845 24.95 -1.2 29.8 54 -9.3 15.2
03:40 1016 30 845 24.95 -1.3 29.7 54 -9.5 14.9
03:45 1016 30 845 24.95 -1.2 29.8 53 -9.6 14.8
03:50 1016 30 845 24.95 -1.3 29.7 53 -9.6 14.8
03:55 1016 30 845 24.95 -1.6 29.1 54 -9.8 14.4
04:00 1016 30 845 24.95 -1.8 28.7 53 -10.3 13.5
04:05 1016 30 845 24.95 -1.7 28.9 51 -10.5 13.1
04:10 1016 30 845 24.95 -1.7 29 52 -10.4 13.3
04:15 1016 30 845 24.95 -1.8 28.8 50 -10.9 12.5
04:20 1016 30 845 24.95 -1.5 29.3 48 -11 12.1
04:25 1016 30 845 24.95 -1.3 29.6 48 -11 12.3
04:30 1016 30 845 24.95 -1.3 29.6 48 -11 12.2
04:35 1016 30 845 24.95 -1.3 29.6 47 -11.3 11.6
04:40 1016 30 845 24.95 -1.3 29.8 45 -11.6 11.1
04:45 1016 30 845 24.95 -1.2 29.9 46 -11.4 11.4
04:50 1015 29.97 845 24.95 -1.3 29.6 46 -11.4 11.5
04:55 1015 29.97 845 24.95 -1.5 29.4 46 -11.7 11
05:00 1015 29.97 845 24.95 -1.5 29.3 46 -11.6 11.1
05:05 1015 29.97 845 24.95 -1.6 29.1 47 -11.5 11.3
05:10 1015 29.97 845 24.95 -1.9 28.5 47 -11.9 10.7
05:15 1015 29.97 845 24.95 -2.1 28.3 46 -12.1 10.2
05:20 1015 29.97 845 24.95 -2 28.4 45 -12.3 9.9
05:25 1015 29.97 845 24.95 -1.9 28.5 46 -12.1 10.3
05:30 1015 29.97 845 24.95 -2.1 28.3 46 -12.1 10.2
05:35 1015 29.97 845 24.95 -2 28.4 46 -12.1 10.2
05:40 1015 29.97 845 24.95 -1.8 28.7 45 -12.1 10.1
05:45 1015 29.97 845 24.95 -1.8 28.8 45 -12.3 9.8
05:50 1015 29.97 845 24.95 -1.7 29 43 -12.6 9.3
05:55 1015 29.97 845 24.95 -1.6 29.2 43 -12.5 9.6
06:00 1015 29.97 845 24.95 -1.7 28.9 44 -12.5 9.5
06:05 1015 29.97 845 24.95 -1.9 28.7 43 -12.9 8.8
06:10 1015 29.97 845 24.95 -1.7 29 41 -13.3 8
06:15 1015 29.97 845 24.95 -1.4 29.4 40 -13.4 7.8
06:20 1015 29.97 845 24.95 -1.4 29.4 41 -13.2 8.3
06:25 1015 29.97 845 24.95 -1.5 29.2 41 -13.2 8.2
06:30 1015 29.97 845 24.95 -1.5 29.3 39 -13.7 7.3
06:35 1015 29.97 845 24.95 -1.3 29.6 39 -13.5 7.7
06:40 1015 29.97 845 24.95 -1.3 29.6 38 -13.9 7
06:45 1015 29.97 845 24.95 -1.2 29.9 37 -14.2 6.5
06:50 1015 29.97 845 24.95 -1.1 30 38 -13.8 7.1
06:55 1015 29.97 845 24.95 -1.2 29.9 37 -14.1 6.7
07:00 1016 30 845 24.95 -1.2 29.8 38 -13.7 7.3
07:05 1016 30 845 24.95 -1.2 29.8 38 -13.8 7.2
07:10 1016 30 845 24.95 -1.3 29.6 38 -13.8 7.2
07:15 1016 30 845 24.95 -1.4 29.4 40 -13.5 7.8
07:20 1016 30 845 24.95 -1.5 29.3 40 -13.5 7.7
07:25 1016 30 845 24.95 -1.6 29.2 39 -13.9 7
07:30 1016 30 845 24.95 -1.5 29.3 40 -13.3 8
07:35 1016 30 845 24.95 -1.6 29.2 40 -13.5 7.6
07:40 1016 30 845 24.95 -1.4 29.5 39 -13.5 7.7
07:45 1016 30 845 24.95 -1.2 29.8 39 -13.4 8
07:50 1016 30 845 24.95 -1.1 30.1 40 -12.9 8.8
07:55 1016 30 845 24.95 -1 30.1 41 -12.6 9.3
08:00 1016 30 845 24.95 -0.9 30.4 39 -13.1 8.4
08:05 1016 30 845 24.95 -0.6 30.9 40 -12.7 9.2
08:10 1016 30 845 24.95 -0.7 30.8 36 -13.9 6.9
08:15 1016 30 845 24.95 -0.5 31 41 -12.2 10
08:20 1016 30 845 24.95 -0.5 31.1 39 -12.8 9
08:25 1016 30 845 24.95 -0.3 31.4 39 -12.5 9.5
08:30 1016 30 845 24.95 -0.4 31.3 42 -11.9 10.5
08:35 1016 30 846 24.98 -0.6 31 42 -11.9 10.6
08:40 1016 30 846 24.98 -0.6 30.9 42 -12 10.4
08:45 1016 30 846 24.98 -0.7 30.7 44 -11.5 11.3
08:50 1016 30 846 24.98 -0.9 30.4 45 -11.3 11.7
08:55 1016 30 846 24.98 -0.9 30.4 46 -11.2 11.8
09:00 1017 30.03 846 24.98 -0.8 30.5 46 -11.1 12.1
09:05 1017 30.03 846 24.98 -0.8 30.5 46 -11.1 11.9
09:10 1017 30.03 846 24.98 -0.8 30.6 45 -11.1 12
09:15 1017 30.03 846 24.98 -0.7 30.8 44 -11.6 11.1
09:20 1017 30.03 846 24.98 -0.5 31.1 41 -12.2 10
09:25 1017 30.03 846 24.98 -0.4 31.3 44 -11.3 11.6
09:30 1017 30.03 846 24.98 -0.5 31 42 -11.8 10.8
09:35 1017 30.03 846 24.98 -0.5 31.2 44 -11.2 11.8
09:40 1017 30.03 846 24.98 -0.6 31 43 -11.5 11.2
09:45 1017 30.03 846 24.98 -0.5 31.1 45 -11.1 12.1
09:50 1017 30.03 847 25.01 -0.6 31 45 -11 12.2
09:55 1018 30.06 847 25.01 -0.6 30.9 46 -10.9 12.4
10:00 1018 30.06 847 25.01 -0.6 31 46 -10.8 12.5
10:05 1018 30.06 847 25.01 -0.5 31.1 47 -10.6 12.9
10:10 1018 30.06 847 25.01 -0.6 30.9 48 -10.3 13.5
10:15 1018 30.06 847 25.01 -0.5 31.1 48 -10.3 13.4
10:20 1018 30.06 847 25.01 -0.4 31.2 46 -10.6 13
10:25 1018 30.06 847 25.01 -0.5 31.1 48 -10.1 13.9
10:30 1018 30.06 847 25.01 -0.5 31.1 48 -10.2 13.7
10:35 1018 30.06 847 25.01 -0.6 31 49 -9.9 14.1
10:40 1018 30.06 847 25.01 -0.6 31 49 -10 14
10:45 1018 30.06 847 25.01 -0.5 31 49 -10 14.1
10:50 1018 30.06 847 25.01 -0.6 31 50 -9.8 14.3
10:55 1018 30.06 847 25.01 -0.5 31.1 50 -9.6 14.6
11:00 1018 30.06 847 25.01 -0.4 31.3 50 -9.5 14.9
11:05 1017 30.03 847 25.01 -0.4 31.3 49 -9.8 14.4
11:10 1017 30.03 847 25.01 -0.4 31.3 48 -10.2 13.6
11:15 1017 30.03 847 25.01 -0.3 31.5 49 -9.8 14.4
11:20 1017 30.03 847 25.01 -0.3 31.4 46 -10.6 13
11:25 1017 30.03 847 25.01 -0.3 31.5 46 -10.5 13
11:30 1017 30.03 847 25.01 -0.3 31.4 47 -10.3 13.5
11:35 1017 30.03 847 25.01 -0.3 31.4 46 -10.6 13
11:40 1017 30.03 847 25.01 -0.2 31.6 48 -10 14
11:45 1017 30.03 846 24.98 -0.1 31.9 43 -11.1 12.1
11:50 1017 30.03 846 24.98 0 32.1 45 -10.6 13
11:55 1017 30.03 847 25.01 0 32.1 46 -10.2 13.7
12:00 1017 30.03 847 25.01 0.1 32.2 46 -10.2 13.7
12:05 1017 30.03 847 25.01 0.4 32.7 43 -10.7 12.7
12:10 1017 30.03 847 25.01 0.7 33.3 42 -10.7 12.8
12:15 1017 30.03 847 25.01 0.6 33.1 43 -10.6 13
12:20 1018 30.06 847 25.01 0.6 33 43 -10.7 12.7
12:25 1017 30.03 847 25.01 0.4 32.8 43 -10.9 12.4
12:30 1018 30.06 847 25.01 0.6 33.1 41 -11.3 11.6
12:35 1018 30.06 847 25.01 0.7 33.3 38 -12.2 10
12:40 1018 30.06 847 25.01 0.7 33.3 38 -12.1 10.2
12:45 1017 30.03 847 25.01 1.1 34 36 -12.4 9.7
12:50 1017 30.03 847 25.01 0.9 33.6 39 -11.6 11.1
12:55 1017 30.03 847 25.01 0.6 33.1 38 -12.1 10.2
13:00 1017 30.03 847 25.01 0.4 32.7 39 -11.9 10.5
13:05 1017 30.03 847 25.01 0.4 32.8 40 -11.5 11.2
13:10 1017 30.03 847 25.01 0.5 32.9 39 -11.9 10.6
13:15 1017 30.03 847 25.01 0.7 33.2 39 -11.6 11
13:20 1017 30.03 847 25.01 0.9 33.6 38 -11.9 10.6
13:25 1017 30.03 847 25.01 1 33.9 39 -11.4 11.6
13:30 1018 30.06 847 25.01 1.2 34.1 38 -11.8 10.8
13:35 1018 30.06 847 25.01 1.2 34.1 38 -11.6 11.2
13:40 1018 30.06 847 25.01 0.8 33.5 41 -11.1 12
13:45 1018 30.06 847 25.01 0.4 32.7 42 -11.2 11.9
13:50 1018 30.06 847 25.01 0.1 32.2 44 -10.8 12.5
13:55 1018 30.06 847 25.01 -0.1 31.9 44 -11 12.2
14:00 1018 30.06 847 25.01 -0 32 43 -11.1 12
14:05 1018 30.06 847 25.01 0.2 32.3 43 -10.9 12.4
14:10 1018 30.06 847 25.01 0.1 32.2 43 -11 12.2
14:15 1018 30.06 847 25.01 0.1 32.2 43 -11.2 11.9
14:20 1018 30.06 847 25.01 0.1 32.3 46 -10.1 13.8
14:25 1018 30.06 847 25.01 -0 31.9 46 -10.4 13.2
14:30 1018 30.06 847 25.01 0.1 32.1 44 -10.9 12.4
14:35 1018 30.06 847 25.01 0.1 32.3 46 -10.2 13.7
14:40 1018 30.06 847 25.01 0.2 32.3 45 -10.3 13.5
14:45 1018 30.06 847 25.01 0.3 32.6 44 -10.5 13
14:50 1018 30.06 847 25.01 0.3 32.5 44 -10.5 13.2
14:55 1018 30.06 847 25.01 0 32.1 42 -11.4 11.5
15:00 1018 30.06 847 25.01 0.1 32.2 44 -10.9 12.5
15:05 1018 30.06 847 25.01 0 32.1 43 -11.1 12
15:10 1018 30.06 847 25.01 0.1 32.2 43 -11.2 11.8
15:15 1018 30.06 847 25.01 0.3 32.5 42 -11.2 11.9
15:20 1018 30.06 847 25.01 0.3 32.6 42 -11.3 11.7
15:25 1018 30.06 847 25.01 0.3 32.5 43 -11 12.1
15:30 1018 30.06 847 25.01 0.3 32.6 42 -11.2 11.8
15:35 1018 30.06 847 25.01 0.1 32.3 42 -11.3 11.7
15:40 1018 30.06 847 25.01 0.1 32.1 40 -11.9 10.6
15:45 1018 30.06 847 25.01 0.2 32.3 42 -11.4 11.5
15:50 1018 30.06 847 25.01 0.2 32.3 42 -11.3 11.6
15:55 1018 30.06 847 25.01 0 32.1 42 -11.4 11.6
16:00 1018 30.06 847 25.01 -0.1 31.8 42 -11.5 11.2
16:05 1018 30.06 847 25.01 -0.3 31.5 42 -11.6 11.2
16:10 1018 30.06 847 25.01 -0.3 31.4 42 -11.6 11.1
16:15 1018 30.06 847 25.01 -0.3 31.5 42 -11.6 11.1
16:20 1018 30.06 847 25.01 -0.3 31.4 43 -11.5 11.4
16:25 1018 30.06 847 25.01 -0.4 31.3 43 -11.6 11.1
16:30 1017 30.03 847 25.01 -0.5 31.1 44 -11.4 11.5
16:35 1017 30.03 847 25.01 -0.7 30.8 45 -11.2 11.8
16:40 1017 30.03 847 25.01 -0.8 30.5 44 -11.5 11.3
16:45 1017 30.03 847 25.01 -0.8 30.6 44 -11.7 11
16:50 1017 30.03 847 25.01 -0.8 30.6 42 -12 10.3
16:55 1017 30.03 847 25.01 -0.8 30.5 44 -11.7 10.9
17:00 1017 30.03 847 25.01 -1 30.2 45 -11.4 11.4
17:05 1017 30.03 847 25.01 -1.1 30 45 -11.7 11
17:10 1017 30.03 847 25.01 -1.1 30.1 45 -11.6 11.1
17:15 1017 30.03 847 25.01 -1.1 30 45 -11.4 11.4
17:20 1017 30.03 847 25.01 -1.2 29.9 44 -12 10.5
17:25 1017 30.03 847 25.01 -1.1 29.9 44 -12.1 10.3
17:30 1017 30.03 847 25.01 -1.1 30 44 -12 10.5
17:35 1017 30.03 847 25.01 -1.1 30 44 -11.9 10.7
17:40 1017 30.03 847 25.01 -1.2 29.9 43 -12.2 10.1
17:45 1017 30.03 847 25.01 -1.1 30 43 -12.2 10
17:50 1018 30.06 847 25.01 -1 30.1 42 -12.3 9.8
17:55 1018 30.06 847 25.01 -1 30.2 43 -12 10.5
18:00 1018 30.06 847 25.01 -0.9 30.3 43 -12.1 10.3
18:05 1018 30.06 847 25.01 -0.8 30.6 42 -12.2 10
18:10 1018 30.06 847 25.01 -0.8 30.6 42 -12.1 10.2
18:15 1018 30.06 847 25.01 -0.9 30.5 41 -12.6 9.3
18:20 1018 30.06 847 25.01 -0.7 30.7 40 -12.6 9.4
18:25 1018 30.06 847 25.01 -0.6 30.9 41 -12.4 9.7
18:30 1018 30.06 847 25.01 -0.7 30.8 41 -12.3 9.9
18:35 1018 30.06 847 25.01 -0.7 30.7 42 -12.1 10.3
18:40 1018 30.06 847 25.01 -0.8 30.5 41 -12.4 9.6
18:45 1018 30.06 847 25.01 -0.7 30.7 42 -12.1 10.1
18:50 1018 30.06 847 25.01 -0.8 30.5 42 -12.3 9.8
18:55 1018 30.06 847 25.01 -0.8 30.6 41 -12.4 9.7
19:00 1018 30.06 847 25.01 -0.8 30.6 40 -12.7 9.1
19:05 1018 30.06 847 25.01 -0.8 30.6 40 -12.9 8.9
19:10 1018 30.06 847 25.01 -0.7 30.7 40 -12.8 9
19:15 1018 30.06 847 25.01 -0.7 30.7 40 -12.6 9.3
19:20 1018 30.06 847 25.01 -0.8 30.6 41 -12.4 9.6
19:25 1018 30.06 847 25.01 -0.9 30.5 41 -12.7 9.2
19:30 1018 30.06 847 25.01 -0.9 30.4 40 -13 8.6
19:35 1018 30.06 847 25.01 -0.8 30.5 40 -12.8 9
19:40 1018 30.06 847 25.01 -0.8 30.5 40 -12.9 8.7
19:45 1018 30.06 847 25.01 -0.9 30.5 40 -12.7 9.1
19:50 1018 30.06 847 25.01 -0.8 30.5 40 -12.9 8.7
19:55 1018 30.06 847 25.01 -0.8 30.5 40 -12.8 8.9
20:00 1018 30.06 847 25.01 -0.8 30.5 41 -12.6 9.3
20:05 1018 30.06 847 25.01 -1 30.2 41 -12.6 9.3
20:10 1018 30.06 847 25.01 -1 30.3 41 -12.6 9.3
20:15 1018 30.06 847 25.01 -1 30.3 42 -12.4 9.6
20:20 1018 30.06 847 25.01 -1.4 29.5 45 -11.7 10.9
20:25 1018 30.06 847 25.01 -1.7 29 43 -12.7 9.2
20:30 1018 30.06 847 25.01 -1.5 29.3 39 -13.8 7.2
20:35 1018 30.06 847 25.01 -1.3 29.7 38 -13.8 7.2
20:40 1018 30.06 847 25.01 -1.2 29.9 38 -13.6 7.4
20:45 1018 30.06 847 25.01 -1.1 30.1 36 -14.3 6.2
20:50 1018 30.06 847 25.01 -0.9 30.3 39 -13.2 8.2
20:55 1017 30.03 847 25.01 -1.3 29.6 37 -14.1 6.6
21:00 1017 30.03 847 25.01 -1.2 29.9 38 -13.7 7.3
21:05 1017 30.03 847 25.01 -1.3 29.6 38 -13.9 7
21:10 1017 30.03 847 25.01 -1.5 29.3 39 -13.9 7
21:15 1017 30.03 847 25.01 -1.5 29.3 37 -14.5 5.9
21:20 1017 30.03 847 25.01 -1.4 29.5 38 -13.9 7.1
21:25 1017 30.03 847 25.01 -1.4 29.5 38 -13.9 7
21:30 1017 30.03 846 24.98 -1.2 29.8 36 -14.4 6.1
21:35 1017 30.03 846 24.98 -1.3 29.7 37 -14.3 6.2
21:40 1017 30.03 846 24.98 -1.2 29.8 37 -14.2 6.4
21:45 1017 30.03 846 24.98 -1.2 29.9 36 -14.4 6
21:50 1017 30.03 846 24.98 -1 30.2 37 -13.9 7
21:55 1017 30.03 846 24.98 -1.1 30 36 -14.4 6.1
22:00 1017 30.03 846 24.98 -0.9 30.3 36 -14.1 6.5
22:05 1017 30.03 846 24.98 -1.1 30 37 -13.9 6.9
22:10 1017 30.03 846 24.98 -1.3 29.7 38 -13.7 7.3
22:15 1017 30.03 846 24.98 -1.4 29.6 37 -14.4 6
22:20 1017 30.03 846 24.98 -1.1 30 40 -13 8.6
22:25 1017 30.03 846 24.98 -1.8 28.8 42 -13.1 8.4
22:30 1017 30.03 846 24.98 -2.4 27.7 44 -13 8.7
22:35 1017 30.03 846 24.98 -2.4 27.6 43 -13.3 8
22:40 1017 30.03 846 24.98 -2.3 27.8 44 -13.1 8.4
22:45 1017 30.03 846 24.98 -2.4 27.6 42 -13.7 7.4
22:50 1017 30.03 846 24.98 -2.4 27.7 42 -13.6 7.4
22:55 1017 30.03 846 24.98 -2.2 28.1 40 -14.1 6.6
23:00 1017 30.03 846 24.98 -2 28.5 40 -13.7 7.3
23:05 1017 30.03 846 24.98 -2.2 28 42 -13.4 7.8
23:10 1017 30.03 846 24.98 -2.5 27.5 43 -13.4 7.9
23:15 1017 30.03 846 24.98 -2.6 27.3 45 -13 8.6
23:20 1016 30 846 24.98 -3.1 26.4 46 -13.3 8.1
23:25 1016 30 846 24.98 -3.1 26.5 47 -12.9 8.8
23:30 1016 30 846 24.98 -3.6 25.5 49 -12.8 9
23:35 1016 30 845 24.95 -3.8 25.2 50 -12.7 9.1
23:40 1016 30 846 24.98 -3.7 25.3 50 -12.8 8.9
23:45 1016 30 845 24.95 -3.7 25.3 50 -12.7 9.2
23:50 1016 30 845 24.95 -3.7 25.4 50 -12.8 9
23:55 1016 30 845 24.95 -3.6 25.5 49 -12.8 8.9
24:00 1016 30 845 24.95 -3.6 25.6 49 -12.8 9